sensor_id;sensor_type;location;lat;lon;timestamp;P1;durP1;ratioP1;P2;durP2;ratioP2
5539;SDS011;2792;52.452;9.752;2022-09-20T00:01:21;7.10;;;2.80;;
5539;SDS011;2792;52.452;9.752;2022-09-20T00:03:49;9.20;;;2.60;;
5539;SDS011;2792;52.452;9.752;2022-09-20T00:06:17;11.63;;;2.63;;
5539;SDS011;2792;52.452;9.752;2022-09-20T00:08:45;14.00;;;3.47;;
5539;SDS011;2792;52.452;9.752;2022-09-20T00:11:13;11.20;;;3.00;;
5539;SDS011;2792;52.452;9.752;2022-09-20T00:13:41;16.10;;;3.47;;
5539;SDS011;2792;52.452;9.752;2022-09-20T00:16:10;18.93;;;3.90;;
5539;SDS011;2792;52.452;9.752;2022-09-20T00:18:38;14.03;;;4.20;;
5539;SDS011;2792;52.452;9.752;2022-09-20T00:21:05;13.13;;;3.70;;
5539;SDS011;2792;52.452;9.752;2022-09-20T00:23:32;16.03;;;4.30;;
5539;SDS011;2792;52.452;9.752;2022-09-20T00:26:01;14.33;;;4.33;;
5539;SDS011;2792;52.452;9.752;2022-09-20T00:28:29;10.80;;;3.90;;
5539;SDS011;2792;52.452;9.752;2022-09-20T00:30:56;16.57;;;4.70;;
5539;SDS011;2792;52.452;9.752;2022-09-20T00:33:24;13.40;;;4.43;;
5539;SDS011;2792;52.452;9.752;2022-09-20T00:36:12;16.83;;;4.90;;
5539;SDS011;2792;52.452;9.752;2022-09-20T00:38:37;15.27;;;4.73;;
5539;SDS011;2792;52.452;9.752;2022-09-20T00:41:04;15.23;;;5.10;;
5539;SDS011;2792;52.452;9.752;2022-09-20T00:43:34;16.87;;;4.90;;
5539;SDS011;2792;52.452;9.752;2022-09-20T00:46:02;15.27;;;4.63;;
5539;SDS011;2792;52.452;9.752;2022-09-20T00:48:31;14.10;;;5.00;;
5539;SDS011;2792;52.452;9.752;2022-09-20T00:50:58;15.23;;;5.33;;
5539;SDS011;2792;52.452;9.752;2022-09-20T00:53:28;15.43;;;4.67;;
5539;SDS011;2792;52.452;9.752;2022-09-20T00:55:58;14.80;;;4.10;;
5539;SDS011;2792;52.452;9.752;2022-09-20T00:58:26;11.50;;;4.27;;
5539;SDS011;2792;52.452;9.752;2022-09-20T01:00:53;22.37;;;4.07;;
5539;SDS011;2792;52.452;9.752;2022-09-20T01:03:21;15.60;;;3.37;;
5539;SDS011;2792;52.452;9.752;2022-09-20T01:05:50;16.30;;;3.23;;
5539;SDS011;2792;52.452;9.752;2022-09-20T01:08:18;8.80;;;3.20;;
5539;SDS011;2792;52.452;9.752;2022-09-20T01:10:45;11.63;;;3.63;;
5539;SDS011;2792;52.452;9.752;2022-09-20T01:13:12;12.43;;;3.80;;
5539;SDS011;2792;52.452;9.752;2022-09-20T01:15:39;9.57;;;3.03;;
5539;SDS011;2792;52.452;9.752;2022-09-20T01:18:06;8.07;;;2.97;;
5539;SDS011;2792;52.452;9.752;2022-09-20T01:20:33;13.13;;;3.60;;
5539;SDS011;2792;52.452;9.752;2022-09-20T01:23:15;8.70;;;3.00;;
5539;SDS011;2792;52.452;9.752;2022-09-20T01:25:56;12.87;;;3.43;;
5539;SDS011;2792;52.452;9.752;2022-09-20T01:28:30;6.13;;;3.00;;
5539;SDS011;2792;52.452;9.752;2022-09-20T01:30:58;14.87;;;3.50;;
5539;SDS011;2792;52.452;9.752;2022-09-20T01:33:29;9.77;;;3.00;;
5539;SDS011;2792;52.452;9.752;2022-09-20T01:35:59;15.13;;;3.60;;
5539;SDS011;2792;52.452;9.752;2022-09-20T01:38:28;10.53;;;3.50;;
5539;SDS011;2792;52.452;9.752;2022-09-20T01:41:02;11.83;;;3.43;;
5539;SDS011;2792;52.452;9.752;2022-09-20T01:43:34;12.47;;;3.30;;
5539;SDS011;2792;52.452;9.752;2022-09-20T01:46:04;13.10;;;3.50;;
5539;SDS011;2792;52.452;9.752;2022-09-20T01:48:43;10.93;;;3.27;;
5539;SDS011;2792;52.452;9.752;2022-09-20T01:51:25;12.40;;;3.50;;
5539;SDS011;2792;52.452;9.752;2022-09-20T01:54:11;12.33;;;3.40;;
5539;SDS011;2792;52.452;9.752;2022-09-20T01:56:54;8.27;;;3.03;;
5539;SDS011;2792;52.452;9.752;2022-09-20T01:59:45;8.03;;;3.30;;
5539;SDS011;2792;52.452;9.752;2022-09-20T02:05:42;13.60;;;4.50;;
5539;SDS011;2792;52.452;9.752;2022-09-20T02:08:23;10.10;;;3.70;;
5539;SDS011;2792;52.452;9.752;2022-09-20T02:11:03;12.13;;;3.80;;
5539;SDS011;2792;52.452;9.752;2022-09-20T02:13:39;20.93;;;3.57;;
5539;SDS011;2792;52.452;9.752;2022-09-20T02:16:33;9.80;;;3.30;;
5539;SDS011;2792;52.452;9.752;2022-09-20T02:22:08;12.30;;;3.70;;
5539;SDS011;2792;52.452;9.752;2022-09-20T02:24:38;13.70;;;4.10;;
5539;SDS011;2792;52.452;9.752;2022-09-20T02:27:08;18.23;;;5.67;;
5539;SDS011;2792;52.452;9.752;2022-09-20T02:29:41;11.67;;;3.90;;
5539;SDS011;2792;52.452;9.752;2022-09-20T02:32:26;19.80;;;3.77;;
5539;SDS011;2792;52.452;9.752;2022-09-20T02:35:00;14.53;;;4.77;;
5539;SDS011;2792;52.452;9.752;2022-09-20T02:37:49;22.23;;;5.27;;
5539;SDS011;2792;52.452;9.752;2022-09-20T02:40:31;8.57;;;4.30;;
5539;SDS011;2792;52.452;9.752;2022-09-20T02:43:07;11.93;;;4.73;;
5539;SDS011;2792;52.452;9.752;2022-09-20T02:45:38;13.43;;;5.80;;
5539;SDS011;2792;52.452;9.752;2022-09-20T02:48:09;23.87;;;6.30;;
5539;SDS011;2792;52.452;9.752;2022-09-20T02:50:39;17.40;;;5.80;;
5539;SDS011;2792;52.452;9.752;2022-09-20T02:53:13;16.90;;;6.03;;
5539;SDS011;2792;52.452;9.752;2022-09-20T02:55:49;23.73;;;6.33;;
5539;SDS011;2792;52.452;9.752;2022-09-20T02:58:25;19.10;;;6.20;;
5539;SDS011;2792;52.452;9.752;2022-09-20T03:00:58;16.40;;;5.90;;
5539;SDS011;2792;52.452;9.752;2022-09-20T03:03:33;11.03;;;5.70;;
5539;SDS011;2792;52.452;9.752;2022-09-20T03:06:06;14.67;;;6.60;;
5539;SDS011;2792;52.452;9.752;2022-09-20T03:08:37;14.03;;;6.77;;
5539;SDS011;2792;52.452;9.752;2022-09-20T03:11:11;14.67;;;5.27;;
5539;SDS011;2792;52.452;9.752;2022-09-20T03:13:45;14.67;;;6.00;;
5539;SDS011;2792;52.452;9.752;2022-09-20T03:16:20;14.23;;;6.10;;
5539;SDS011;2792;52.452;9.752;2022-09-20T03:18:56;24.33;;;7.10;;
5539;SDS011;2792;52.452;9.752;2022-09-20T03:21:30;23.70;;;7.37;;
5539;SDS011;2792;52.452;9.752;2022-09-20T03:24:04;22.03;;;7.03;;
5539;SDS011;2792;52.452;9.752;2022-09-20T03:26:36;19.63;;;6.03;;
5539;SDS011;2792;52.452;9.752;2022-09-20T03:29:14;18.07;;;7.07;;
5539;SDS011;2792;52.452;9.752;2022-09-20T03:31:59;16.17;;;7.70;;
5539;SDS011;2792;52.452;9.752;2022-09-20T03:34:41;20.50;;;7.30;;
5539;SDS011;2792;52.452;9.752;2022-09-20T03:37:17;19.90;;;7.10;;
5539;SDS011;2792;52.452;9.752;2022-09-20T03:40:06;21.70;;;7.37;;
5539;SDS011;2792;52.452;9.752;2022-09-20T03:42:52;12.30;;;6.80;;
5539;SDS011;2792;52.452;9.752;2022-09-20T03:45:23;22.10;;;7.73;;
5539;SDS011;2792;52.452;9.752;2022-09-20T03:47:59;11.47;;;7.10;;
5539;SDS011;2792;52.452;9.752;2022-09-20T03:50:55;17.50;;;7.30;;
5539;SDS011;2792;52.452;9.752;2022-09-20T03:53:38;21.17;;;8.13;;
5539;SDS011;2792;52.452;9.752;2022-09-20T03:56:30;15.30;;;8.27;;
5539;SDS011;2792;52.452;9.752;2022-09-20T03:59:13;19.50;;;8.00;;
5539;SDS011;2792;52.452;9.752;2022-09-20T04:02:05;37.73;;;9.60;;
5539;SDS011;2792;52.452;9.752;2022-09-20T04:04:41;22.77;;;8.77;;
5539;SDS011;2792;52.452;9.752;2022-09-20T04:07:14;20.57;;;7.90;;
5539;SDS011;2792;52.452;9.752;2022-09-20T04:09:55;17.20;;;8.50;;
5539;SDS011;2792;52.452;9.752;2022-09-20T04:12:31;18.33;;;8.10;;
5539;SDS011;2792;52.452;9.752;2022-09-20T04:15:07;19.50;;;8.57;;
5539;SDS011;2792;52.452;9.752;2022-09-20T04:17:44;21.70;;;8.57;;
5539;SDS011;2792;52.452;9.752;2022-09-20T04:20:15;24.20;;;10.17;;
5539;SDS011;2792;52.452;9.752;2022-09-20T04:22:45;18.20;;;8.90;;
5539;SDS011;2792;52.452;9.752;2022-09-20T04:25:17;19.97;;;9.43;;
5539;SDS011;2792;52.452;9.752;2022-09-20T04:27:46;23.43;;;9.83;;
5539;SDS011;2792;52.452;9.752;2022-09-20T04:30:16;20.13;;;9.50;;
5539;SDS011;2792;52.452;9.752;2022-09-20T04:32:46;22.63;;;9.90;;
5539;SDS011;2792;52.452;9.752;2022-09-20T04:35:17;24.03;;;9.97;;
5539;SDS011;2792;52.452;9.752;2022-09-20T04:38:11;23.70;;;9.87;;
5539;SDS011;2792;52.452;9.752;2022-09-20T04:40:43;27.00;;;10.97;;
5539;SDS011;2792;52.452;9.752;2022-09-20T04:43:30;28.17;;;11.07;;
5539;SDS011;2792;52.452;9.752;2022-09-20T04:49:25;28.80;;;12.10;;
5539;SDS011;2792;52.452;9.752;2022-09-20T04:52:10;22.97;;;10.80;;
5539;SDS011;2792;52.452;9.752;2022-09-20T04:57:49;22.00;;;10.70;;
5539;SDS011;2792;52.452;9.752;2022-09-20T05:00:41;26.67;;;10.63;;
5539;SDS011;2792;52.452;9.752;2022-09-20T05:03:25;24.50;;;10.20;;
5539;SDS011;2792;52.452;9.752;2022-09-20T05:06:24;28.73;;;10.80;;
5539;SDS011;2792;52.452;9.752;2022-09-20T05:09:20;29.73;;;11.33;;
5539;SDS011;2792;52.452;9.752;2022-09-20T05:11:56;19.37;;;10.00;;
5539;SDS011;2792;52.452;9.752;2022-09-20T05:14:46;26.63;;;10.57;;
5539;SDS011;2792;52.452;9.752;2022-09-20T05:17:35;21.43;;;10.60;;
5539;SDS011;2792;52.452;9.752;2022-09-20T05:26:07;21.10;;;10.13;;
5539;SDS011;2792;52.452;9.752;2022-09-20T05:28:40;25.57;;;10.10;;
5539;SDS011;2792;52.452;9.752;2022-09-20T05:31:15;22.63;;;10.63;;
5539;SDS011;2792;52.452;9.752;2022-09-20T05:33:49;29.63;;;12.00;;
5539;SDS011;2792;52.452;9.752;2022-09-20T05:36:18;19.20;;;9.53;;
5539;SDS011;2792;52.452;9.752;2022-09-20T05:38:53;22.33;;;11.53;;
5539;SDS011;2792;52.452;9.752;2022-09-20T05:41:26;23.70;;;10.20;;
5539;SDS011;2792;52.452;9.752;2022-09-20T05:44:03;19.20;;;9.83;;
5539;SDS011;2792;52.452;9.752;2022-09-20T05:46:38;24.07;;;10.17;;
5539;SDS011;2792;52.452;9.752;2022-09-20T05:49:12;21.33;;;10.30;;
5539;SDS011;2792;52.452;9.752;2022-09-20T05:51:46;21.80;;;10.77;;
5539;SDS011;2792;52.452;9.752;2022-09-20T05:57:14;19.90;;;9.03;;
5539;SDS011;2792;52.452;9.752;2022-09-20T05:59:50;20.70;;;9.37;;
5539;SDS011;2792;52.452;9.752;2022-09-20T06:02:25;19.17;;;8.80;;
5539;SDS011;2792;52.452;9.752;2022-09-20T06:04:58;14.77;;;9.03;;
5539;SDS011;2792;52.452;9.752;2022-09-20T06:07:31;12.90;;;7.87;;
5539;SDS011;2792;52.452;9.752;2022-09-20T06:13:21;18.60;;;7.87;;
5539;SDS011;2792;52.452;9.752;2022-09-20T06:15:57;12.33;;;7.53;;
5539;SDS011;2792;52.452;9.752;2022-09-20T06:18:26;23.13;;;7.97;;
5539;SDS011;2792;52.452;9.752;2022-09-20T06:20:59;16.97;;;7.73;;
5539;SDS011;2792;52.452;9.752;2022-09-20T06:23:33;20.90;;;7.00;;
5539;SDS011;2792;52.452;9.752;2022-09-20T06:26:00;20.23;;;7.20;;
5539;SDS011;2792;52.452;9.752;2022-09-20T06:28:28;13.47;;;7.10;;
5539;SDS011;2792;52.452;9.752;2022-09-20T06:30:59;14.53;;;8.30;;
5539;SDS011;2792;52.452;9.752;2022-09-20T06:33:37;14.60;;;6.20;;
5539;SDS011;2792;52.452;9.752;2022-09-20T06:36:08;19.67;;;6.27;;
5539;SDS011;2792;52.452;9.752;2022-09-20T06:38:54;19.00;;;6.70;;
5539;SDS011;2792;52.452;9.752;2022-09-20T06:41:41;14.90;;;6.97;;
5539;SDS011;2792;52.452;9.752;2022-09-20T06:44:08;12.90;;;6.70;;
5539;SDS011;2792;52.452;9.752;2022-09-20T06:46:36;10.20;;;6.17;;
5539;SDS011;2792;52.452;9.752;2022-09-20T06:49:06;18.13;;;5.97;;
5539;SDS011;2792;52.452;9.752;2022-09-20T06:51:34;19.97;;;6.13;;
5539;SDS011;2792;52.452;9.752;2022-09-20T06:54:01;9.03;;;5.17;;
5539;SDS011;2792;52.452;9.752;2022-09-20T06:56:29;15.33;;;4.93;;
5539;SDS011;2792;52.452;9.752;2022-09-20T06:58:59;16.47;;;4.97;;
5539;SDS011;2792;52.452;9.752;2022-09-20T07:01:25;13.80;;;4.97;;
5539;SDS011;2792;52.452;9.752;2022-09-20T07:03:53;17.00;;;4.73;;
5539;SDS011;2792;52.452;9.752;2022-09-20T07:06:20;6.87;;;3.63;;
5539;SDS011;2792;52.452;9.752;2022-09-20T07:08:46;11.53;;;4.30;;
5539;SDS011;2792;52.452;9.752;2022-09-20T07:11:14;7.87;;;3.77;;
5539;SDS011;2792;52.452;9.752;2022-09-20T07:13:41;16.93;;;4.20;;
5539;SDS011;2792;52.452;9.752;2022-09-20T07:16:09;13.07;;;4.30;;
5539;SDS011;2792;52.452;9.752;2022-09-20T07:18:37;7.17;;;3.53;;
5539;SDS011;2792;52.452;9.752;2022-09-20T07:21:07;6.70;;;3.40;;
5539;SDS011;2792;52.452;9.752;2022-09-20T07:23:34;10.70;;;3.67;;
5539;SDS011;2792;52.452;9.752;2022-09-20T07:26:00;15.10;;;3.97;;
5539;SDS011;2792;52.452;9.752;2022-09-20T07:28:27;11.27;;;4.00;;
5539;SDS011;2792;52.452;9.752;2022-09-20T07:30:54;8.27;;;3.67;;
5539;SDS011;2792;52.452;9.752;2022-09-20T07:33:20;13.23;;;3.07;;
5539;SDS011;2792;52.452;9.752;2022-09-20T07:35:49;13.03;;;3.27;;
5539;SDS011;2792;52.452;9.752;2022-09-20T07:38:18;10.50;;;3.40;;
5539;SDS011;2792;52.452;9.752;2022-09-20T07:40:44;6.53;;;3.40;;
5539;SDS011;2792;52.452;9.752;2022-09-20T07:43:11;19.43;;;3.37;;
5539;SDS011;2792;52.452;9.752;2022-09-20T07:45:37;10.77;;;2.90;;
5539;SDS011;2792;52.452;9.752;2022-09-20T07:48:04;8.40;;;3.30;;
5539;SDS011;2792;52.452;9.752;2022-09-20T07:50:33;4.77;;;2.20;;
5539;SDS011;2792;52.452;9.752;2022-09-20T07:52:59;10.87;;;2.60;;
5539;SDS011;2792;52.452;9.752;2022-09-20T07:55:28;7.20;;;3.00;;
5539;SDS011;2792;52.452;9.752;2022-09-20T07:57:54;5.53;;;2.40;;
5539;SDS011;2792;52.452;9.752;2022-09-20T08:00:21;9.87;;;2.20;;
5539;SDS011;2792;52.452;9.752;2022-09-20T08:02:55;6.37;;;2.30;;
5539;SDS011;2792;52.452;9.752;2022-09-20T08:05:23;7.33;;;1.90;;
5539;SDS011;2792;52.452;9.752;2022-09-20T08:07:49;5.27;;;2.27;;
5539;SDS011;2792;52.452;9.752;2022-09-20T08:10:16;7.13;;;2.33;;
5539;SDS011;2792;52.452;9.752;2022-09-20T08:12:45;6.30;;;1.90;;
5539;SDS011;2792;52.452;9.752;2022-09-20T08:15:12;5.17;;;2.13;;
5539;SDS011;2792;52.452;9.752;2022-09-20T08:17:38;4.53;;;1.53;;
5539;SDS011;2792;52.452;9.752;2022-09-20T08:20:05;6.77;;;1.90;;
5539;SDS011;2792;52.452;9.752;2022-09-20T08:22:33;5.40;;;1.63;;
5539;SDS011;2792;52.452;9.752;2022-09-20T08:24:59;4.00;;;1.63;;
5539;SDS011;2792;52.452;9.752;2022-09-20T08:27:26;3.67;;;1.90;;
5539;SDS011;2792;52.452;9.752;2022-09-20T08:29:53;4.97;;;1.60;;
5539;SDS011;2792;52.452;9.752;2022-09-20T08:32:21;6.80;;;2.10;;
5539;SDS011;2792;52.452;9.752;2022-09-20T08:34:48;6.20;;;2.20;;
5539;SDS011;2792;52.452;9.752;2022-09-20T08:37:14;4.50;;;1.73;;
5539;SDS011;2792;52.452;9.752;2022-09-20T08:39:41;3.77;;;2.13;;
5539;SDS011;2792;52.452;9.752;2022-09-20T08:42:09;10.70;;;2.07;;
5539;SDS011;2792;52.452;9.752;2022-09-20T08:44:42;4.50;;;2.30;;
5539;SDS011;2792;52.452;9.752;2022-09-20T08:47:16;5.63;;;1.80;;
5539;SDS011;2792;52.452;9.752;2022-09-20T08:49:45;7.43;;;2.00;;
5539;SDS011;2792;52.452;9.752;2022-09-20T08:52:13;4.63;;;1.90;;
5539;SDS011;2792;52.452;9.752;2022-09-20T08:54:41;8.00;;;2.13;;
5539;SDS011;2792;52.452;9.752;2022-09-20T08:57:09;6.03;;;1.97;;
5539;SDS011;2792;52.452;9.752;2022-09-20T08:59:40;6.80;;;1.67;;
5539;SDS011;2792;52.452;9.752;2022-09-20T09:02:08;4.13;;;2.10;;
5539;SDS011;2792;52.452;9.752;2022-09-20T09:04:42;5.27;;;1.77;;
5539;SDS011;2792;52.452;9.752;2022-09-20T09:07:09;5.07;;;1.90;;
5539;SDS011;2792;52.452;9.752;2022-09-20T09:09:38;10.03;;;2.03;;
5539;SDS011;2792;52.452;9.752;2022-09-20T09:12:13;4.83;;;1.90;;
5539;SDS011;2792;52.452;9.752;2022-09-20T09:14:41;10.10;;;2.40;;
5539;SDS011;2792;52.452;9.752;2022-09-20T09:17:16;3.20;;;2.30;;
5539;SDS011;2792;52.452;9.752;2022-09-20T09:19:46;6.60;;;2.77;;
5539;SDS011;2792;52.452;9.752;2022-09-20T09:22:19;8.10;;;2.90;;
5539;SDS011;2792;52.452;9.752;2022-09-20T09:25:08;6.50;;;3.07;;
5539;SDS011;2792;52.452;9.752;2022-09-20T09:27:53;10.17;;;3.53;;
5539;SDS011;2792;52.452;9.752;2022-09-20T09:30:22;3.57;;;2.57;;
5539;SDS011;2792;52.452;9.752;2022-09-20T09:32:51;8.50;;;3.07;;
5539;SDS011;2792;52.452;9.752;2022-09-20T09:35:24;4.80;;;2.10;;
5539;SDS011;2792;52.452;9.752;2022-09-20T09:37:53;10.60;;;2.30;;
5539;SDS011;2792;52.452;9.752;2022-09-20T09:40:21;6.40;;;2.70;;
5539;SDS011;2792;52.452;9.752;2022-09-20T09:42:49;4.43;;;2.13;;
5539;SDS011;2792;52.452;9.752;2022-09-20T09:45:24;3.70;;;2.53;;
5539;SDS011;2792;52.452;9.752;2022-09-20T09:47:54;9.03;;;2.30;;
5539;SDS011;2792;52.452;9.752;2022-09-20T09:50:22;8.17;;;2.27;;
5539;SDS011;2792;52.452;9.752;2022-09-20T09:52:58;8.80;;;2.60;;
5539;SDS011;2792;52.452;9.752;2022-09-20T09:55:28;4.47;;;1.83;;
5539;SDS011;2792;52.452;9.752;2022-09-20T09:58:18;3.63;;;1.67;;
5539;SDS011;2792;52.452;9.752;2022-09-20T10:00:50;4.40;;;2.20;;
5539;SDS011;2792;52.452;9.752;2022-09-20T10:03:24;6.77;;;2.10;;
5539;SDS011;2792;52.452;9.752;2022-09-20T10:06:01;4.13;;;1.77;;
5539;SDS011;2792;52.452;9.752;2022-09-20T10:08:37;2.20;;;1.57;;
5539;SDS011;2792;52.452;9.752;2022-09-20T10:11:13;10.87;;;2.07;;
5539;SDS011;2792;52.452;9.752;2022-09-20T10:13:46;7.43;;;2.10;;
5539;SDS011;2792;52.452;9.752;2022-09-20T10:16:24;4.37;;;1.50;;
5539;SDS011;2792;52.452;9.752;2022-09-20T10:18:56;3.43;;;1.57;;
5539;SDS011;2792;52.452;9.752;2022-09-20T10:21:31;2.17;;;1.50;;
5539;SDS011;2792;52.452;9.752;2022-09-20T10:24:12;4.83;;;1.50;;
5539;SDS011;2792;52.452;9.752;2022-09-20T10:29:38;6.40;;;1.70;;
5539;SDS011;2792;52.452;9.752;2022-09-20T10:32:15;7.57;;;2.00;;
5539;SDS011;2792;52.452;9.752;2022-09-20T10:34:51;2.20;;;1.30;;
5539;SDS011;2792;52.452;9.752;2022-09-20T10:37:27;2.57;;;1.00;;
5539;SDS011;2792;52.452;9.752;2022-09-20T10:40:02;3.23;;;0.90;;
5539;SDS011;2792;52.452;9.752;2022-09-20T10:42:36;1.80;;;0.97;;
5539;SDS011;2792;52.452;9.752;2022-09-20T10:45:26;5.23;;;1.63;;
5539;SDS011;2792;52.452;9.752;2022-09-20T10:47:57;2.23;;;1.07;;
5539;SDS011;2792;52.452;9.752;2022-09-20T10:50:28;4.30;;;1.43;;
5539;SDS011;2792;52.452;9.752;2022-09-20T10:53:14;3.03;;;1.13;;
5539;SDS011;2792;52.452;9.752;2022-09-20T10:55:48;1.67;;;1.13;;
5539;SDS011;2792;52.452;9.752;2022-09-20T10:58:30;3.13;;;1.50;;
5539;SDS011;2792;52.452;9.752;2022-09-20T11:01:06;5.33;;;1.53;;
5539;SDS011;2792;52.452;9.752;2022-09-20T11:06:41;1.50;;;1.00;;
5539;SDS011;2792;52.452;9.752;2022-09-20T11:09:16;4.70;;;1.10;;
5539;SDS011;2792;52.452;9.752;2022-09-20T11:11:45;2.77;;;1.20;;
5539;SDS011;2792;52.452;9.752;2022-09-20T11:14:14;4.80;;;1.00;;
5539;SDS011;2792;52.452;9.752;2022-09-20T11:16:45;3.57;;;1.00;;
5539;SDS011;2792;52.452;9.752;2022-09-20T11:19:17;3.87;;;1.20;;
5539;SDS011;2792;52.452;9.752;2022-09-20T11:21:47;1.57;;;1.00;;
5539;SDS011;2792;52.452;9.752;2022-09-20T11:24:21;6.13;;;1.30;;
5539;SDS011;2792;52.452;9.752;2022-09-20T11:26:53;1.90;;;1.20;;
5539;SDS011;2792;52.452;9.752;2022-09-20T11:29:22;7.30;;;1.20;;
5539;SDS011;2792;52.452;9.752;2022-09-20T11:31:52;4.57;;;1.30;;
5539;SDS011;2792;52.452;9.752;2022-09-20T11:34:24;2.40;;;1.10;;
5539;SDS011;2792;52.452;9.752;2022-09-20T11:36:54;5.40;;;1.20;;
5539;SDS011;2792;52.452;9.752;2022-09-20T11:39:26;8.70;;;1.70;;
5539;SDS011;2792;52.452;9.752;2022-09-20T11:41:55;2.23;;;1.20;;
5539;SDS011;2792;52.452;9.752;2022-09-20T11:44:24;3.67;;;1.07;;
5539;SDS011;2792;52.452;9.752;2022-09-20T11:46:52;8.07;;;1.50;;
5539;SDS011;2792;52.452;9.752;2022-09-20T11:49:21;6.50;;;1.40;;
5539;SDS011;2792;52.452;9.752;2022-09-20T11:55:03;3.23;;;1.23;;
5539;SDS011;2792;52.452;9.752;2022-09-20T11:57:59;6.97;;;1.30;;
5539;SDS011;2792;52.452;9.752;2022-09-20T12:00:28;8.93;;;1.70;;
5539;SDS011;2792;52.452;9.752;2022-09-20T12:02:56;7.17;;;1.37;;
5539;SDS011;2792;52.452;9.752;2022-09-20T12:05:25;5.87;;;1.63;;
5539;SDS011;2792;52.452;9.752;2022-09-20T12:07:53;2.60;;;1.20;;
5539;SDS011;2792;52.452;9.752;2022-09-20T12:10:23;4.67;;;1.60;;
5539;SDS011;2792;52.452;9.752;2022-09-20T12:12:54;2.90;;;1.20;;
5539;SDS011;2792;52.452;9.752;2022-09-20T12:15:22;3.53;;;1.70;;
5539;SDS011;2792;52.452;9.752;2022-09-20T12:20:59;3.63;;;1.33;;
5539;SDS011;2792;52.452;9.752;2022-09-20T12:23:43;1.93;;;0.87;;
5539;SDS011;2792;52.452;9.752;2022-09-20T12:26:13;8.20;;;1.80;;
5539;SDS011;2792;52.452;9.752;2022-09-20T12:29:08;2.70;;;1.00;;
5539;SDS011;2792;52.452;9.752;2022-09-20T12:38:30;4.37;;;1.57;;
5539;SDS011;2792;52.452;9.752;2022-09-20T12:41:04;2.33;;;1.20;;
5539;SDS011;2792;52.452;9.752;2022-09-20T12:43:33;5.50;;;1.53;;
5539;SDS011;2792;52.452;9.752;2022-09-20T12:46:02;5.50;;;1.43;;
5539;SDS011;2792;52.452;9.752;2022-09-20T12:48:32;2.13;;;1.10;;
5539;SDS011;2792;52.452;9.752;2022-09-20T12:51:01;5.63;;;1.47;;
5539;SDS011;2792;52.452;9.752;2022-09-20T12:56:29;8.93;;;1.50;;
5539;SDS011;2792;52.452;9.752;2022-09-20T12:59:00;4.77;;;1.37;;
5539;SDS011;2792;52.452;9.752;2022-09-20T13:01:36;3.00;;;1.63;;
5539;SDS011;2792;52.452;9.752;2022-09-20T13:07:25;6.60;;;1.33;;
5539;SDS011;2792;52.452;9.752;2022-09-20T13:09:58;3.10;;;1.23;;
5539;SDS011;2792;52.452;9.752;2022-09-20T13:12:27;3.87;;;1.63;;
5539;SDS011;2792;52.452;9.752;2022-09-20T13:14:54;8.63;;;1.10;;
5539;SDS011;2792;52.452;9.752;2022-09-20T13:17:21;8.63;;;1.47;;
5539;SDS011;2792;52.452;9.752;2022-09-20T13:19:53;2.40;;;0.83;;
5539;SDS011;2792;52.452;9.752;2022-09-20T13:22:21;5.33;;;1.00;;
5539;SDS011;2792;52.452;9.752;2022-09-20T13:24:51;31.60;;;1.77;;
5539;SDS011;2792;52.452;9.752;2022-09-20T13:27:24;2.00;;;1.17;;
5539;SDS011;2792;52.452;9.752;2022-09-20T13:29:54;4.30;;;1.00;;
5539;SDS011;2792;52.452;9.752;2022-09-20T13:32:21;3.70;;;1.20;;
5539;SDS011;2792;52.452;9.752;2022-09-20T13:37:32;2.37;;;1.03;;
5539;SDS011;2792;52.452;9.752;2022-09-20T13:40:00;3.20;;;1.13;;
5539;SDS011;2792;52.452;9.752;2022-09-20T13:42:28;1.73;;;0.80;;
5539;SDS011;2792;52.452;9.752;2022-09-20T13:44:55;1.77;;;1.00;;
5539;SDS011;2792;52.452;9.752;2022-09-20T13:47:24;1.73;;;0.90;;
5539;SDS011;2792;52.452;9.752;2022-09-20T13:49:52;2.33;;;0.87;;
5539;SDS011;2792;52.452;9.752;2022-09-20T13:52:27;2.40;;;0.60;;
5539;SDS011;2792;52.452;9.752;2022-09-20T13:54:55;1.33;;;1.23;;
5539;SDS011;2792;52.452;9.752;2022-09-20T13:57:22;2.00;;;1.30;;
5539;SDS011;2792;52.452;9.752;2022-09-20T13:59:52;1.57;;;0.97;;
5539;SDS011;2792;52.452;9.752;2022-09-20T14:02:20;1.90;;;0.77;;
5539;SDS011;2792;52.452;9.752;2022-09-20T14:04:50;3.40;;;1.20;;
5539;SDS011;2792;52.452;9.752;2022-09-20T14:07:19;3.17;;;1.20;;
5539;SDS011;2792;52.452;9.752;2022-09-20T14:09:47;3.80;;;1.00;;
5539;SDS011;2792;52.452;9.752;2022-09-20T14:12:15;1.97;;;1.37;;
5539;SDS011;2792;52.452;9.752;2022-09-20T14:14:42;2.13;;;0.70;;
5539;SDS011;2792;52.452;9.752;2022-09-20T14:17:10;2.47;;;0.90;;
5539;SDS011;2792;52.452;9.752;2022-09-20T14:19:39;1.60;;;0.73;;
5539;SDS011;2792;52.452;9.752;2022-09-20T14:22:07;6.50;;;1.30;;
5539;SDS011;2792;52.452;9.752;2022-09-20T14:24:53;2.20;;;0.90;;
5539;SDS011;2792;52.452;9.752;2022-09-20T14:27:24;1.90;;;0.97;;
5539;SDS011;2792;52.452;9.752;2022-09-20T14:29:51;1.77;;;1.00;;
5539;SDS011;2792;52.452;9.752;2022-09-20T14:32:30;3.13;;;1.03;;
5539;SDS011;2792;52.452;9.752;2022-09-20T14:35:02;1.63;;;0.80;;
5539;SDS011;2792;52.452;9.752;2022-09-20T14:37:32;1.00;;;0.80;;
5539;SDS011;2792;52.452;9.752;2022-09-20T14:40:02;2.40;;;0.73;;
5539;SDS011;2792;52.452;9.752;2022-09-20T14:42:32;0.90;;;0.70;;
5539;SDS011;2792;52.452;9.752;2022-09-20T14:45:00;1.90;;;0.90;;
5539;SDS011;2792;52.452;9.752;2022-09-20T14:47:27;4.27;;;1.23;;
5539;SDS011;2792;52.452;9.752;2022-09-20T14:49:55;0.80;;;0.80;;
5539;SDS011;2792;52.452;9.752;2022-09-20T14:52:36;2.30;;;0.70;;
5539;SDS011;2792;52.452;9.752;2022-09-20T14:55:18;2.30;;;0.87;;
5539;SDS011;2792;52.452;9.752;2022-09-20T14:57:52;1.03;;;0.80;;
5539;SDS011;2792;52.452;9.752;2022-09-20T15:00:21;3.07;;;1.13;;
5539;SDS011;2792;52.452;9.752;2022-09-20T15:02:47;3.43;;;1.00;;
5539;SDS011;2792;52.452;9.752;2022-09-20T15:05:16;0.93;;;0.83;;
5539;SDS011;2792;52.452;9.752;2022-09-20T15:07:44;1.93;;;0.93;;
5539;SDS011;2792;52.452;9.752;2022-09-20T15:10:11;2.50;;;0.80;;
5539;SDS011;2792;52.452;9.752;2022-09-20T15:12:40;6.90;;;1.70;;
5539;SDS011;2792;52.452;9.752;2022-09-20T15:15:10;13.00;;;6.90;;
5539;SDS011;2792;52.452;9.752;2022-09-20T15:17:39;24.13;;;12.40;;
5539;SDS011;2792;52.452;9.752;2022-09-20T15:20:08;8.90;;;3.20;;
5539;SDS011;2792;52.452;9.752;2022-09-20T15:22:38;71.67;;;9.43;;
5539;SDS011;2792;52.452;9.752;2022-09-20T15:25:05;20.23;;;9.87;;
5539;SDS011;2792;52.452;9.752;2022-09-20T15:27:32;36.90;;;19.33;;
5539;SDS011;2792;52.452;9.752;2022-09-20T15:30:00;3.43;;;1.40;;
5539;SDS011;2792;52.452;9.752;2022-09-20T15:32:27;1.30;;;1.20;;
5539;SDS011;2792;52.452;9.752;2022-09-20T15:34:53;3.50;;;1.10;;
5539;SDS011;2792;52.452;9.752;2022-09-20T15:37:20;2.97;;;1.43;;
5539;SDS011;2792;52.452;9.752;2022-09-20T15:39:46;3.03;;;1.30;;
5539;SDS011;2792;52.452;9.752;2022-09-20T15:42:13;2.00;;;1.33;;
5539;SDS011;2792;52.452;9.752;2022-09-20T15:44:40;2.10;;;0.90;;
5539;SDS011;2792;52.452;9.752;2022-09-20T15:47:08;2.30;;;0.90;;
5539;SDS011;2792;52.452;9.752;2022-09-20T15:49:34;2.60;;;1.50;;
5539;SDS011;2792;52.452;9.752;2022-09-20T15:52:01;3.07;;;1.80;;
5539;SDS011;2792;52.452;9.752;2022-09-20T15:54:28;1.67;;;0.83;;
5539;SDS011;2792;52.452;9.752;2022-09-20T15:56:54;2.60;;;0.80;;
5539;SDS011;2792;52.452;9.752;2022-09-20T15:59:22;4.17;;;1.20;;
5539;SDS011;2792;52.452;9.752;2022-09-20T16:01:48;1.10;;;0.60;;
5539;SDS011;2792;52.452;9.752;2022-09-20T16:04:17;0.90;;;0.70;;
5539;SDS011;2792;52.452;9.752;2022-09-20T16:06:45;1.90;;;0.93;;
5539;SDS011;2792;52.452;9.752;2022-09-20T16:09:13;2.43;;;1.00;;
5539;SDS011;2792;52.452;9.752;2022-09-20T16:11:40;1.57;;;0.80;;
5539;SDS011;2792;52.452;9.752;2022-09-20T16:14:07;0.90;;;0.87;;
5539;SDS011;2792;52.452;9.752;2022-09-20T16:16:33;1.10;;;0.90;;
5539;SDS011;2792;52.452;9.752;2022-09-20T16:19:00;3.43;;;1.03;;
5539;SDS011;2792;52.452;9.752;2022-09-20T16:21:43;1.33;;;0.90;;
5539;SDS011;2792;52.452;9.752;2022-09-20T16:24:11;0.93;;;0.90;;
5539;SDS011;2792;52.452;9.752;2022-09-20T16:26:37;1.87;;;0.87;;
5539;SDS011;2792;52.452;9.752;2022-09-20T16:29:04;2.20;;;0.90;;
5539;SDS011;2792;52.452;9.752;2022-09-20T16:31:32;0.90;;;0.73;;